createdAt,value
2022-08-22T00:01:53.616Z,53.00
2022-08-22T00:02:48.934Z,48.85
2022-08-22T00:03:09.332Z,48.62
2022-08-22T00:04:45.550Z,53.81
2022-08-22T00:07:21.128Z,54.83
2022-08-22T00:10:11.663Z,56.22
2022-08-22T00:13:07.814Z,54.43
2022-08-22T00:15:44.289Z,54.16
2022-08-22T00:18:22.779Z,55.60
2022-08-22T00:20:58.003Z,54.13
2022-08-22T00:23:30.296Z,54.54
2022-08-22T00:26:15.177Z,54.54
2022-08-22T00:28:46.981Z,54.59
2022-08-22T00:31:40.793Z,54.72
2022-08-22T00:34:11.941Z,55.05
2022-08-22T00:36:41.096Z,54.83
2022-08-22T00:39:13.556Z,55.04
2022-08-22T00:42:29.072Z,55.34
2022-08-22T00:45:16.927Z,55.56
2022-08-22T00:47:56.320Z,55.44
2022-08-22T00:50:42.156Z,55.34
2022-08-22T00:53:46.016Z,55.70
2022-08-22T00:56:45.165Z,55.45
2022-08-22T00:59:47.803Z,55.73
2022-08-22T01:02:28.899Z,56.65
2022-08-22T01:05:32.979Z,56.08
2022-08-22T01:08:07.590Z,56.52
2022-08-22T01:10:46.140Z,56.56
2022-08-22T01:13:46.148Z,57.12
2022-08-22T01:16:41.730Z,57.09
2022-08-22T01:19:49.452Z,57.94
2022-08-22T01:22:38.667Z,56.71
2022-08-22T01:25:32.751Z,57.20
2022-08-22T01:28:11.624Z,58.33
2022-08-22T01:31:15.428Z,58.86
2022-08-22T01:34:03.190Z,57.90
2022-08-22T01:36:48.706Z,57.29
2022-08-22T01:39:54.628Z,58.39
2022-08-22T01:42:49.147Z,58.10
2022-08-22T01:45:21.076Z,58.33
2022-08-22T01:47:47.379Z,58.68
2022-08-22T01:50:35.132Z,58.45
2022-08-22T01:53:08.338Z,58.71
2022-08-22T01:56:11.189Z,58.54
2022-08-22T01:58:45.145Z,60.42
2022-08-22T02:01:33.881Z,61.18
2022-08-22T02:04:26.637Z,60.63
2022-08-22T02:07:04.165Z,61.10
2022-08-22T02:10:01.707Z,60.20
2022-08-22T02:12:49.896Z,61.95
2022-08-22T02:15:27.760Z,61.08
2022-08-22T02:18:06.105Z,61.09
2022-08-22T02:20:52.940Z,61.93
2022-08-22T02:23:30.538Z,61.99
2022-08-22T02:26:02.754Z,62.05
2022-08-22T02:28:37.887Z,61.23
2022-08-22T02:31:38.533Z,61.39
2022-08-22T02:34:26.473Z,61.41
2022-08-22T02:37:08.646Z,61.93
2022-08-22T02:40:02.080Z,62.24
2022-08-22T02:42:38.246Z,63.21
2022-08-22T02:45:38.835Z,63.46
2022-08-22T02:48:28.482Z,63.48
2022-08-22T02:51:06.115Z,64.45
2022-08-22T02:53:48.471Z,63.80
2022-08-22T02:56:22.400Z,62.91
2022-08-22T02:59:19.334Z,63.49
2022-08-22T03:01:47.469Z,64.17
2022-08-22T03:04:31.960Z,64.81
2022-08-22T03:06:58.290Z,64.93
2022-08-22T03:09:29.804Z,65.27
2022-08-22T03:12:21.461Z,66.27
2022-08-22T03:15:00.017Z,66.72
2022-08-22T03:17:49.413Z,65.61
2022-08-22T03:20:36.462Z,65.43
2022-08-22T03:23:11.767Z,65.78
2022-08-22T03:25:50.631Z,65.10
2022-08-22T03:28:58.883Z,64.98
2022-08-22T03:31:28.879Z,65.35
2022-08-22T03:34:23.132Z,65.13
2022-08-22T03:37:15.408Z,66.46
2022-08-22T03:39:55.032Z,67.31
2022-08-22T03:42:49.765Z,67.19
2022-08-22T03:45:54.968Z,67.34
2022-08-22T03:48:42.751Z,68.14
2022-08-22T03:51:30.700Z,67.49
2022-08-22T03:54:15.203Z,67.60
2022-08-22T03:57:12.100Z,67.47
2022-08-22T03:59:58.908Z,66.78
2022-08-22T04:03:06.499Z,67.61
2022-08-22T04:05:42.119Z,67.50
2022-08-22T04:08:11.218Z,68.10
2022-08-22T04:10:42.361Z,68.34
2022-08-22T04:13:34.837Z,68.91
2022-08-22T04:16:13.179Z,68.90
2022-08-22T04:18:44.776Z,68.87
2022-08-22T04:21:14.484Z,68.47
2022-08-22T04:24:02.085Z,68.37
2022-08-22T04:26:59.883Z,68.48
2022-08-22T04:29:48.879Z,68.61
2022-08-22T04:32:26.806Z,67.77
2022-08-22T04:34:59.916Z,68.29
2022-08-22T04:37:26.261Z,68.02
2022-08-22T04:40:00.479Z,67.72
2022-08-22T04:42:43.627Z,67.82
2022-08-22T04:45:19.349Z,67.89
2022-08-22T04:48:09.064Z,68.87
2022-08-22T04:50:54.586Z,67.98
2022-08-22T04:53:26.210Z,67.91
2022-08-22T04:56:21.181Z,67.69
2022-08-22T04:59:12.569Z,68.37
2022-08-22T05:01:49.099Z,68.63
2022-08-22T05:04:20.654Z,68.36
2022-08-22T05:06:52.026Z,68.06
2022-08-22T05:09:24.651Z,68.70
2022-08-22T05:11:54.452Z,68.24
2022-08-22T05:14:28.083Z,68.65
2022-08-22T05:16:57.564Z,68.80
2022-08-22T05:19:34.555Z,68.56
2022-08-22T05:22:03.077Z,69.23
2022-08-22T05:24:44.018Z,68.76
2022-08-22T05:27:20.218Z,68.36
2022-08-22T05:29:50.372Z,68.47
2022-08-22T05:32:27.279Z,68.28
2022-08-22T05:34:59.399Z,68.24
2022-08-22T05:37:38.939Z,67.56
2022-08-22T05:40:07.133Z,67.40
2022-08-22T05:42:37.415Z,66.82
2022-08-22T05:45:08.541Z,66.70
2022-08-22T05:47:42.753Z,66.68
2022-08-22T05:50:17.596Z,66.06
2022-08-22T05:52:56.428Z,65.58
2022-08-22T05:55:36.290Z,65.22
2022-08-22T05:58:31.224Z,65.19
2022-08-22T06:01:19.487Z,65.20
2022-08-22T06:03:57.135Z,64.98
2022-08-22T06:06:26.853Z,64.53
2022-08-22T06:09:18.468Z,64.39
2022-08-22T06:11:56.247Z,63.26
2022-08-22T06:14:31.312Z,63.43
2022-08-22T06:17:11.688Z,62.45
2022-08-22T06:19:44.870Z,62.55
2022-08-22T06:22:17.120Z,62.85
2022-08-22T06:24:47.968Z,61.78
2022-08-22T06:27:17.060Z,61.92
2022-08-22T06:29:51.125Z,61.19
2022-08-22T06:32:27.906Z,61.17
2022-08-22T06:35:53.018Z,61.55
2022-08-22T06:38:21.678Z,61.10
2022-08-22T06:40:51.365Z,60.62
2022-08-22T06:43:18.622Z,60.46
2022-08-22T06:45:45.191Z,60.91
2022-08-22T06:48:16.317Z,61.16
2022-08-22T06:50:45.435Z,61.73
2022-08-22T06:53:17.299Z,61.55
2022-08-22T06:55:49.176Z,61.39
2022-08-22T06:58:20.872Z,61.72
2022-08-22T07:00:58.872Z,61.26
2022-08-22T07:03:44.874Z,60.95
2022-08-22T07:06:21.230Z,60.90
2022-08-22T07:08:53.131Z,60.38
2022-08-22T07:11:26.065Z,59.47
2022-08-22T07:13:55.151Z,59.16
2022-08-22T07:16:33.188Z,58.98
2022-08-22T07:19:01.140Z,58.68
2022-08-22T07:21:34.263Z,58.05
2022-08-22T07:24:03.057Z,58.29
2022-08-22T07:26:48.920Z,57.88
2022-08-22T07:29:24.552Z,57.22
2022-08-22T07:34:39.241Z,56.71
2022-08-22T07:37:14.316Z,56.59
2022-08-22T07:39:54.972Z,55.82
2022-08-22T07:42:30.353Z,54.98
2022-08-22T07:45:15.607Z,53.89
2022-08-22T07:47:41.912Z,54.07
2022-08-22T07:50:15.183Z,53.26
2022-08-22T07:52:44.097Z,53.42
2022-08-22T07:55:20.445Z,53.40
2022-08-22T07:57:54.719Z,53.50
2022-08-22T08:00:23.832Z,54.00
2022-08-22T08:02:53.945Z,54.45
2022-08-22T08:05:23.233Z,54.30
2022-08-22T08:07:53.623Z,53.78
2022-08-22T08:10:27.451Z,53.28
2022-08-22T08:13:02.444Z,53.14
2022-08-22T08:15:32.059Z,52.81
2022-08-22T08:18:03.776Z,52.67
2022-08-22T08:20:30.679Z,51.56
2022-08-22T08:22:59.205Z,51.03
2022-08-22T08:25:28.186Z,51.41
2022-08-22T08:28:15.883Z,50.60
2022-08-22T08:30:55.996Z,50.22
2022-08-22T08:33:26.933Z,50.52
2022-08-22T08:36:09.946Z,49.30
2022-08-22T08:38:47.806Z,50.20
2022-08-22T08:41:44.827Z,49.03
2022-08-22T08:44:32.779Z,49.32
2022-08-22T08:47:20.565Z,49.33
2022-08-22T08:50:01.650Z,48.41
2022-08-22T08:52:52.942Z,47.47
2022-08-22T08:55:33.143Z,47.51
2022-08-22T08:58:22.592Z,46.69
2022-08-22T09:00:57.075Z,45.42
2022-08-22T09:03:43.807Z,47.28
2022-08-22T09:06:25.295Z,46.11
2022-08-22T09:09:16.948Z,47.21
2022-08-22T09:11:46.320Z,45.35
2022-08-22T09:14:12.705Z,43.54
2022-08-22T09:17:07.836Z,44.25
2022-08-22T09:19:40.515Z,44.24
2022-08-22T09:22:33.409Z,43.85
2022-08-22T09:25:23.850Z,43.36
2022-08-22T09:28:10.842Z,42.80
2022-08-22T09:30:54.136Z,43.08
2022-08-22T09:33:24.687Z,43.26
2022-08-22T09:36:06.192Z,43.68
2022-08-22T09:38:57.612Z,44.23
2022-08-22T09:41:40.709Z,43.87
2022-08-22T09:44:16.892Z,42.56
2022-08-22T09:46:46.267Z,41.81
2022-08-22T09:49:48.212Z,41.94
2022-08-22T09:52:33.270Z,40.60
2022-08-22T09:55:16.202Z,40.79
2022-08-22T09:58:18.574Z,40.93
2022-08-22T10:00:56.961Z,39.98
2022-08-22T10:03:51.948Z,40.63
2022-08-22T10:06:26.874Z,39.36
2022-08-22T10:09:09.088Z,38.58
2022-08-22T10:11:52.523Z,39.47
2022-08-22T10:14:25.452Z,38.82
2022-08-22T10:17:28.543Z,37.35
2022-08-22T10:20:15.250Z,38.10
2022-08-22T10:23:11.466Z,37.51
2022-08-22T10:25:52.699Z,37.21
2022-08-22T10:28:39.329Z,35.54
2022-08-22T10:31:24.346Z,36.05
2022-08-22T10:34:07.987Z,33.76
2022-08-22T10:37:02.449Z,33.00
2022-08-22T10:39:43.984Z,33.70
2022-08-22T10:42:35.086Z,34.54
2022-08-22T10:45:35.734Z,33.63
2022-08-22T10:48:07.256Z,33.84
2022-08-22T10:50:40.183Z,31.97
2022-08-22T10:53:31.138Z,33.61
2022-08-22T10:56:08.452Z,34.47
2022-08-22T10:59:06.291Z,36.41
2022-08-22T11:01:52.805Z,35.35
2022-08-22T11:04:45.276Z,33.67
2022-08-22T11:07:48.750Z,32.66
2022-08-22T11:10:26.718Z,32.62
2022-08-22T11:13:16.586Z,32.17
2022-08-22T11:15:54.978Z,32.92
2022-08-22T11:19:16.931Z,33.48
2022-08-22T11:21:46.624Z,32.32
2022-08-22T11:24:56.384Z,33.11
2022-08-22T11:27:37.693Z,33.63
2022-08-22T11:30:18.617Z,32.81
2022-08-22T11:33:00.693Z,32.77
2022-08-22T11:35:51.848Z,32.05
2022-08-22T11:38:37.199Z,31.97
2022-08-22T11:41:27.020Z,31.44
2022-08-22T11:44:06.209Z,29.62
2022-08-22T11:46:36.966Z,30.66
2022-08-22T11:49:33.844Z,32.11
2022-08-22T11:52:25.696Z,31.03
2022-08-22T11:54:56.712Z,31.55
2022-08-22T11:57:44.876Z,31.17
2022-08-22T12:00:26.398Z,29.59
2022-08-22T12:03:05.063Z,30.25
2022-08-22T12:05:35.792Z,30.42
2022-08-22T12:08:21.191Z,30.01
2022-08-22T12:10:57.704Z,30.25
2022-08-22T12:13:34.858Z,30.17
2022-08-22T12:16:32.299Z,28.87
2022-08-22T12:19:01.556Z,28.03
2022-08-22T12:21:36.770Z,30.84
2022-08-22T12:24:11.364Z,28.68
2022-08-22T12:26:53.229Z,30.14
2022-08-22T12:30:13.951Z,30.13
2022-08-22T12:33:23.295Z,29.34
2022-08-22T12:35:58.613Z,29.59
2022-08-22T12:38:50.276Z,29.62
2022-08-22T12:41:28.116Z,28.39
2022-08-22T12:44:29.356Z,27.96
2022-08-22T12:47:32.122Z,27.14
2022-08-22T12:50:18.824Z,27.31
2022-08-22T12:53:19.989Z,26.95
2022-08-22T12:56:29.408Z,26.52
2022-08-22T12:58:58.696Z,27.14
2022-08-22T13:01:34.347Z,27.04
2022-08-22T13:04:05.060Z,26.80
2022-08-22T13:06:48.837Z,27.48
2022-08-22T13:09:28.829Z,26.31
2022-08-22T13:12:00.233Z,26.93
2022-08-22T13:14:33.821Z,26.60
2022-08-22T13:17:23.699Z,27.10
2022-08-22T13:19:59.216Z,26.16
2022-08-22T13:22:30.653Z,27.08
2022-08-22T13:25:16.260Z,27.32
2022-08-22T13:27:59.781Z,27.95
2022-08-22T13:30:37.857Z,28.45
2022-08-22T13:33:22.307Z,27.96
2022-08-22T13:35:53.261Z,28.00
2022-08-22T13:38:46.692Z,26.76
2022-08-22T13:41:19.460Z,28.59
2022-08-22T13:44:14.144Z,27.32
2022-08-22T13:47:10.893Z,27.45
2022-08-22T13:49:34.469Z,26.06
2022-08-22T13:52:38.350Z,27.18
2022-08-22T13:55:24.136Z,26.40
2022-08-22T13:58:06.730Z,25.01
2022-08-22T14:01:11.853Z,27.04
2022-08-22T14:03:48.817Z,25.90
2022-08-22T14:06:35.287Z,26.99
2022-08-22T14:09:29.342Z,26.12
2022-08-22T14:12:08.219Z,26.68
2022-08-22T14:14:42.444Z,26.35
2022-08-22T14:17:22.756Z,25.63
2022-08-22T14:20:01.784Z,26.32
2022-08-22T14:22:35.039Z,26.31
2022-08-22T14:25:34.359Z,27.29
2022-08-22T14:28:09.081Z,26.26
2022-08-22T14:30:59.437Z,25.78
2022-08-22T14:33:46.788Z,24.70
2022-08-22T14:36:21.843Z,25.56
2022-08-22T14:39:03.688Z,25.22
2022-08-22T14:41:56.272Z,26.25
2022-08-22T14:44:48.127Z,25.86
2022-08-22T14:47:55.025Z,25.19
2022-08-22T14:51:00.775Z,24.90
2022-08-22T14:53:37.115Z,26.12
2022-08-22T14:56:18.917Z,25.70
2022-08-22T14:58:57.447Z,26.76
2022-08-22T15:01:26.615Z,25.30
2022-08-22T15:04:07.660Z,26.14
2022-08-22T15:06:50.702Z,26.33
2022-08-22T15:09:48.491Z,26.27
2022-08-22T15:12:34.586Z,25.45
2022-08-22T15:15:06.112Z,25.95
2022-08-22T15:17:44.861Z,27.23
2022-08-22T15:20:27.900Z,26.12
2022-08-22T15:22:59.907Z,26.95
2022-08-22T15:25:34.910Z,26.43
2022-08-22T15:28:20.100Z,26.43
2022-08-22T15:30:58.602Z,25.35
2022-08-22T15:33:36.029Z,26.39
2022-08-22T15:36:16.457Z,26.57
2022-08-22T15:38:51.410Z,27.53
2022-08-22T15:41:31.489Z,26.98
2022-08-22T15:44:32.967Z,27.53
2022-08-22T15:47:15.123Z,27.50
2022-08-22T15:49:58.944Z,26.90
2022-08-22T15:52:29.503Z,26.58
2022-08-22T15:54:57.019Z,27.39
2022-08-22T15:57:38.949Z,26.81
2022-08-22T16:00:32.525Z,27.03
2022-08-22T16:03:24.620Z,26.93
2022-08-22T16:06:00.678Z,27.96
2022-08-22T16:08:36.347Z,27.29
2022-08-22T16:11:02.642Z,28.28
2022-08-22T16:13:32.141Z,27.38
2022-08-22T16:16:00.836Z,26.34
2022-08-22T16:18:33.320Z,27.91
2022-08-22T16:21:22.005Z,27.95
2022-08-22T16:23:56.179Z,27.79
2022-08-22T16:26:31.727Z,28.03
2022-08-22T16:29:14.706Z,28.14
2022-08-22T16:31:43.810Z,27.77
2022-08-22T16:34:16.363Z,27.71
2022-08-22T16:37:03.108Z,26.91
2022-08-22T16:39:40.813Z,27.30
2022-08-22T16:42:16.017Z,28.11
2022-08-22T16:44:47.727Z,27.95
2022-08-22T16:47:23.645Z,27.02
2022-08-22T16:49:49.930Z,27.44
2022-08-22T16:52:39.032Z,27.72
2022-08-22T16:55:30.290Z,28.14
2022-08-22T16:58:09.431Z,29.87
2022-08-22T17:00:57.992Z,27.76
2022-08-22T17:04:02.879Z,29.32
2022-08-22T17:06:47.397Z,30.65
2022-08-22T17:09:32.375Z,30.32
2022-08-22T17:12:29.348Z,29.24
2022-08-22T17:15:25.861Z,30.27
2022-08-22T17:18:20.103Z,29.60
2022-08-22T17:21:17.603Z,29.95
2022-08-22T17:24:32.018Z,29.91
2022-08-22T17:27:06.904Z,30.48
2022-08-22T17:30:10.416Z,30.16
2022-08-22T17:32:59.748Z,30.89
2022-08-22T17:35:54.854Z,31.53
2022-08-22T17:38:27.255Z,30.61
2022-08-22T17:41:13.844Z,31.11
2022-08-22T17:44:00.129Z,32.59
2022-08-22T17:46:44.432Z,30.75
2022-08-22T17:49:33.128Z,31.71
2022-08-22T17:52:24.984Z,33.17
2022-08-22T17:55:01.059Z,32.35
2022-08-22T17:57:32.999Z,34.50
2022-08-22T18:00:34.424Z,33.32
2022-08-22T18:03:12.877Z,36.49
2022-08-22T18:05:50.263Z,33.68
2022-08-22T18:09:13.427Z,34.09
2022-08-22T18:11:29.389Z,36.10
2022-08-22T18:14:23.602Z,35.86
2022-08-22T18:16:55.306Z,36.27
2022-08-22T18:19:36.765Z,35.79
2022-08-22T18:22:31.962Z,36.07
2022-08-22T18:25:16.604Z,36.08
2022-08-22T18:27:51.591Z,36.98
2022-08-22T18:30:19.820Z,37.16
2022-08-22T18:32:52.672Z,36.55
2022-08-22T18:35:30.051Z,37.48
2022-08-22T18:38:18.299Z,36.96
2022-08-22T18:40:57.141Z,36.89
2022-08-22T18:43:35.495Z,37.61
2022-08-22T18:46:23.803Z,38.88
2022-08-22T18:49:14.113Z,38.72
2022-08-22T18:51:38.695Z,38.77
2022-08-22T18:54:05.199Z,37.74
2022-08-22T18:56:31.505Z,38.80
2022-08-22T18:59:06.084Z,37.89
2022-08-22T19:01:54.322Z,39.09
2022-08-22T19:04:45.730Z,39.23
2022-08-22T19:07:46.741Z,39.29
2022-08-22T19:10:13.103Z,38.85
2022-08-22T19:13:03.169Z,38.92
2022-08-22T19:15:55.328Z,39.41
2022-08-22T19:18:39.947Z,39.88
2022-08-22T19:21:39.768Z,38.90
2022-08-22T19:24:26.400Z,39.14
2022-08-22T19:27:19.213Z,39.61
2022-08-22T19:29:45.518Z,39.15
2022-08-22T19:32:55.427Z,39.90
2022-08-22T19:35:25.632Z,40.44
2022-08-22T19:37:54.295Z,40.84
2022-08-22T19:40:45.560Z,40.56
2022-08-22T19:43:30.200Z,40.49
2022-08-22T19:45:58.639Z,40.42
2022-08-22T19:48:48.648Z,41.14
2022-08-22T19:51:27.948Z,41.81
2022-08-22T19:54:16.760Z,41.87
2022-08-22T19:56:59.521Z,42.76
2022-08-22T19:59:34.954Z,43.75
2022-08-22T20:02:19.867Z,43.51
2022-08-22T20:04:58.032Z,43.72
2022-08-22T20:07:44.600Z,44.40
2022-08-22T20:10:31.038Z,44.80
2022-08-22T20:13:18.008Z,45.61
2022-08-22T20:16:42.685Z,45.54
2022-08-22T20:19:09.915Z,44.73
2022-08-22T20:21:56.727Z,43.95
2022-08-22T20:25:16.843Z,44.68
2022-08-22T20:28:06.013Z,44.29
2022-08-22T20:30:45.534Z,45.49
2022-08-22T20:33:18.420Z,44.07
2022-08-22T20:35:54.977Z,45.00
2022-08-22T20:38:32.168Z,44.91
2022-08-22T20:41:20.844Z,45.51
2022-08-22T20:43:57.147Z,46.17
2022-08-22T20:46:33.402Z,45.92
2022-08-22T20:49:00.936Z,47.26
2022-08-22T20:51:31.424Z,47.27
2022-08-22T20:54:01.267Z,46.63
2022-08-22T20:56:59.943Z,46.22
2022-08-22T20:59:27.343Z,46.08
2022-08-22T21:02:25.676Z,46.67
2022-08-22T21:05:06.247Z,45.64
2022-08-22T21:07:39.786Z,46.89
2022-08-22T21:10:40.327Z,47.67
2022-08-22T21:13:11.443Z,47.41
2022-08-22T21:15:44.229Z,47.72
2022-08-22T21:18:22.983Z,48.62
2022-08-22T21:20:50.551Z,49.66
2022-08-22T21:23:17.859Z,48.12
2022-08-22T21:25:56.520Z,48.45
2022-08-22T21:28:40.690Z,48.93
2022-08-22T21:31:14.208Z,48.94
2022-08-22T21:33:45.708Z,48.87
2022-08-22T21:36:14.449Z,49.38
2022-08-22T21:39:06.376Z,49.91
2022-08-22T21:41:42.654Z,50.39
2022-08-22T21:44:31.986Z,49.61
2022-08-22T21:47:30.873Z,50.72
2022-08-22T21:50:04.190Z,50.44
2022-08-22T21:52:33.212Z,50.93
2022-08-22T21:55:15.687Z,50.81
2022-08-22T21:57:43.175Z,50.25
2022-08-22T22:00:39.208Z,50.91
2022-08-22T22:03:07.281Z,50.48
2022-08-22T22:05:33.754Z,50.82
2022-08-22T22:08:00.422Z,50.45
2022-08-22T22:10:27.231Z,50.74
2022-08-22T22:12:56.584Z,50.27
2022-08-22T22:15:25.771Z,50.06
2022-08-22T22:17:52.332Z,50.87
2022-08-22T22:20:20.599Z,50.63
2022-08-22T22:22:47.435Z,51.15
2022-08-22T22:25:40.675Z,51.14
2022-08-22T22:28:12.739Z,50.66
2022-08-22T22:30:39.950Z,50.91
2022-08-22T22:33:06.412Z,50.92
2022-08-22T22:35:32.899Z,51.48
2022-08-22T22:37:59.520Z,52.25
2022-08-22T22:40:26.072Z,52.63
2022-08-22T22:42:52.487Z,52.77
2022-08-22T22:45:18.883Z,52.78
2022-08-22T22:47:45.271Z,53.87
2022-08-22T22:50:11.650Z,54.67
2022-08-22T22:52:40.755Z,52.78
2022-08-22T22:55:08.560Z,52.95
2022-08-22T22:57:41.270Z,52.96
2022-08-22T23:00:14.236Z,52.81
2022-08-22T23:02:41.405Z,52.44
2022-08-22T23:05:09.944Z,52.31
2022-08-22T23:07:37.115Z,51.03
2022-08-22T23:10:06.793Z,50.99
2022-08-22T23:12:36.184Z,51.14
2022-08-22T23:15:04.991Z,51.06
2022-08-22T23:17:31.760Z,51.13
2022-08-22T23:19:58.197Z,51.45
2022-08-22T23:22:24.710Z,51.21
2022-08-22T23:24:51.241Z,51.48
2022-08-22T23:27:18.201Z,51.40
2022-08-22T23:29:44.812Z,50.89
2022-08-22T23:32:12.119Z,51.40
2022-08-22T23:34:46.096Z,52.65
2022-08-22T23:37:15.519Z,51.81
2022-08-22T23:39:42.091Z,51.54
2022-08-22T23:42:09.904Z,51.49
2022-08-22T23:44:39.327Z,52.11
2022-08-22T23:47:07.321Z,51.30
2022-08-22T23:49:34.814Z,51.13
2022-08-22T23:52:01.761Z,51.19
2022-08-22T23:54:28.584Z,51.77
2022-08-22T23:57:00.955Z,51.65
2022-08-22T23:59:31.013Z,52.82
